Flight Track Log - Related Links

Times and Time Zones

All times are in EDT time to prevent confusion due to time zone crossing. See the KAP131 flight status page for this flight to view local times or setup timezone preferences in your user account.

Time Position Orientation Groundspeed Altitude Reporting Facility
EDT Latitude Longitude Course Direction KTS MPH feet Rate Location/Type
Thu 09:50:00 PM 41.5150 -70.4492 41° Northeast  Level FlightAware Approximate
Thu 09:51:00 PM 41.5368 -70.4238 41° Northeast  Level FlightAware Approximate
Thu 09:52:00 PM 41.5585 -70.3984 41° Northeast  Level FlightAware Approximate
Thu 09:53:00 PM 41.5803 -70.3730 41° Northeast  Level FlightAware Approximate
Thu 09:54:00 PM 41.6020 -70.3475 43° Northeast  Level FlightAware Approximate
Thu 09:55:00 PM 41.6232 -70.3211 43° Northeast  Level FlightAware Approximate
Thu 09:56:00 PM 41.6443 -70.2947 43° Northeast  Level FlightAware Approximate
Thu 09:57:00 PM 41.6654 -70.2682 43° Northeast  Level FlightAware Approximate
Thu 09:58:00 PM 41.6667 -70.2667 43° Northeast  Level FlightAware Approximate
Thu 09:59:00 PM 41.6693 -70.2804 43° Northeast  Level Estimated
Thu 10:00:00 PM 41.6693 -70.2804 43° Northeast  Level Estimated
Thu 10:01:00 PM 41.6693 -70.2804 43° Northeast  Level Estimated
Thu 10:02:00 PM 41.6693 -70.2804 43° Northeast  Level Estimated
Thu 10:03:00 PM 41.6693 -70.2804 43° Northeast  Level Estimated
Thu 10:04:00 PM 41.6693 -70.2804 43° Northeast  Level Estimated
Thu 10:05:00 PM 41.6693 -70.2804 43° Northeast  Level Estimated
Thu 10:06:00 PM 41.6693 -70.2804 43° Northeast  Level Estimated
Thu 10:07:00 PM 41.6693 -70.2804 43° Northeast  Level Estimated
Thu 10:08:00 PM 41.6693 -70.2804 43° Northeast  Level Estimated
Thu 10:09:00 PM 41.6693 -70.2804 43° Northeast  Level Estimated

Login

Don't have an account? Register now (free) for customized features, flight alerts, and more!